createdAt,value
2017-10-31T00:00:24.865Z,99.90
2017-10-31T00:05:28.069Z,99.90
2017-10-31T00:10:31.272Z,99.90
2017-10-31T00:15:34.454Z,99.90
2017-10-31T00:20:38.418Z,99.90
2017-10-31T00:25:41.598Z,99.90
2017-10-31T00:30:44.786Z,99.90
2017-10-31T00:35:48.021Z,99.90
2017-10-31T00:40:51.554Z,99.90
2017-10-31T00:45:54.744Z,99.90
2017-10-31T00:50:58.847Z,99.90
2017-10-31T00:56:02.023Z,99.90
2017-10-31T01:01:05.995Z,99.90
2017-10-31T01:06:09.177Z,99.90
2017-10-31T01:11:12.433Z,99.90
2017-10-31T01:16:15.677Z,99.90
2017-10-31T01:21:18.870Z,99.90
2017-10-31T01:26:22.113Z,99.90
2017-10-31T01:31:25.332Z,99.90
2017-10-31T01:36:28.525Z,99.90
2017-10-31T01:41:31.715Z,99.90
2017-10-31T01:46:35.674Z,99.90
2017-10-31T01:51:38.874Z,99.90
2017-10-31T01:56:42.088Z,99.90
2017-10-31T02:01:45.544Z,99.90
2017-10-31T02:06:48.745Z,99.90
2017-10-31T02:11:52.002Z,99.90
2017-10-31T02:16:55.191Z,99.90
2017-10-31T02:21:58.335Z,99.90
2017-10-31T02:27:01.511Z,99.90
2017-10-31T02:32:04.671Z,99.90
2017-10-31T02:37:07.888Z,99.90
2017-10-31T02:42:11.060Z,99.90
2017-10-31T02:47:14.239Z,99.90
2017-10-31T02:52:17.414Z,99.90
2017-10-31T02:57:21.333Z,99.90
2017-10-31T03:02:25.314Z,99.90
2017-10-31T03:07:28.478Z,99.90
2017-10-31T03:12:32.411Z,99.90
2017-10-31T03:17:35.606Z,99.90
2017-10-31T03:22:39.759Z,99.90
2017-10-31T03:27:43.023Z,99.90
2017-10-31T03:32:46.211Z,99.90
2017-10-31T03:37:49.514Z,99.90
2017-10-31T03:42:52.692Z,99.90
2017-10-31T03:47:55.858Z,99.90
2017-10-31T03:52:59.803Z,99.90
2017-10-31T03:58:02.977Z,99.90
2017-10-31T04:03:06.181Z,99.90
2017-10-31T04:08:09.384Z,99.90
2017-10-31T04:13:12.546Z,99.90
2017-10-31T04:18:15.719Z,99.90
2017-10-31T04:23:19.638Z,99.90
2017-10-31T04:28:23.646Z,99.90
2017-10-31T04:33:26.822Z,99.90
2017-10-31T04:38:29.986Z,99.90
2017-10-31T04:43:33.178Z,99.90
2017-10-31T04:48:37.134Z,99.90
2017-10-31T04:53:40.330Z,99.90
2017-10-31T04:58:43.589Z,99.90
2017-10-31T05:03:46.763Z,99.90
2017-10-31T05:08:49.961Z,99.90
2017-10-31T05:13:53.156Z,99.90
2017-10-31T05:18:56.354Z,99.90
2017-10-31T05:23:59.544Z,99.90
2017-10-31T05:29:02.737Z,99.90
2017-10-31T05:34:05.926Z,99.90
2017-10-31T05:39:09.205Z,99.90
2017-10-31T05:44:12.384Z,99.90
2017-10-31T05:49:16.332Z,99.90
2017-10-31T05:54:19.522Z,99.90
2017-10-31T05:59:22.706Z,99.90
2017-10-31T06:04:25.889Z,99.90
2017-10-31T06:09:29.117Z,99.90
2017-10-31T06:14:33.238Z,99.90
2017-10-31T06:19:36.431Z,99.90
2017-10-31T06:40:40.693Z,99.90
2017-10-31T06:45:44.731Z,99.90
2017-10-31T06:50:47.916Z,99.90
2017-10-31T06:55:51.877Z,99.90
2017-10-31T07:00:55.083Z,99.90
2017-10-31T07:05:58.267Z,99.90
2017-10-31T07:11:01.478Z,99.90
2017-10-31T07:16:05.539Z,99.90
2017-10-31T07:21:08.740Z,99.90
2017-10-31T07:26:11.934Z,99.90
2017-10-31T07:31:15.193Z,99.90
2017-10-31T07:36:18.374Z,99.90
2017-10-31T07:41:21.574Z,99.90
2017-10-31T07:46:24.760Z,99.90
2017-10-31T07:51:27.966Z,99.90
2017-10-31T07:56:31.150Z,99.90
2017-10-31T08:01:35.097Z,99.90
2017-10-31T08:06:38.302Z,99.90
2017-10-31T08:11:41.499Z,99.90
2017-10-31T08:16:44.727Z,99.90
2017-10-31T08:21:47.995Z,99.90
2017-10-31T08:26:51.938Z,98.70
2017-10-31T08:31:55.158Z,98.70
2017-10-31T08:36:58.383Z,99.40
2017-10-31T08:42:01.617Z,99.90
2017-10-31T08:47:04.795Z,94.70
2017-10-31T08:52:07.964Z,95.70
2017-10-31T08:57:12.044Z,95.10
2017-10-31T09:02:15.344Z,95.10
2017-10-31T09:07:18.599Z,95.40
2017-10-31T09:12:21.859Z,98.00
2017-10-31T09:17:25.078Z,95.70
2017-10-31T09:22:28.273Z,92.80
2017-10-31T09:27:31.644Z,96.30
2017-10-31T09:32:35.631Z,97.30
2017-10-31T09:37:38.821Z,97.20
2017-10-31T09:42:42.041Z,95.30
2017-10-31T09:47:45.239Z,94.30
2017-10-31T09:52:48.498Z,90.20
2017-10-31T09:57:51.719Z,90.20
2017-10-31T10:02:54.936Z,88.70
2017-10-31T10:07:58.144Z,86.50
2017-10-31T10:13:01.331Z,85.20
2017-10-31T10:18:04.498Z,86.30
2017-10-31T10:23:07.693Z,86.50
2017-10-31T10:28:10.885Z,86.70
2017-10-31T10:33:14.174Z,84.10
2017-10-31T10:38:17.362Z,85.00
2017-10-31T10:43:20.558Z,82.60
2017-10-31T10:48:23.888Z,83.10
2017-10-31T10:53:27.041Z,81.20
2017-10-31T10:58:30.234Z,79.90
2017-10-31T11:03:33.453Z,80.80
2017-10-31T11:08:36.659Z,77.20
2017-10-31T11:13:39.880Z,78.90
2017-10-31T11:18:43.833Z,76.10
2017-10-31T11:23:47.078Z,76.20
2017-10-31T11:28:50.280Z,75.10
2017-10-31T11:33:53.486Z,75.30
2017-10-31T11:38:56.711Z,73.60
2017-10-31T11:43:59.929Z,72.60
2017-10-31T11:49:03.941Z,71.70
2017-10-31T11:54:07.135Z,71.60
2017-10-31T11:59:10.397Z,71.40
2017-10-31T12:04:13.630Z,69.50
2017-10-31T12:09:16.879Z,67.70
2017-10-31T12:14:20.152Z,63.40
2017-10-31T12:19:23.373Z,59.10
2017-10-31T12:24:26.551Z,62.30
2017-10-31T12:29:29.751Z,60.90
2017-10-31T12:34:32.938Z,58.00
2017-10-31T12:39:36.474Z,57.00
2017-10-31T12:44:39.814Z,58.20
2017-10-31T12:49:43.017Z,57.10
2017-10-31T12:54:46.222Z,57.10
2017-10-31T12:59:49.439Z,56.80
2017-10-31T13:04:52.774Z,55.80
2017-10-31T13:09:56.133Z,56.30
2017-10-31T13:14:59.305Z,55.80
2017-10-31T13:20:02.487Z,54.90
2017-10-31T13:25:06.458Z,56.10
2017-10-31T13:30:10.698Z,55.70
2017-10-31T13:35:14.954Z,56.40
2017-10-31T13:40:19.365Z,56.80
2017-10-31T13:45:22.537Z,57.20
2017-10-31T13:50:25.798Z,57.50
2017-10-31T13:55:29.025Z,57.80
2017-10-31T14:00:33.238Z,57.50
2017-10-31T14:05:37.495Z,57.50
2017-10-31T14:10:41.823Z,58.80
2017-10-31T14:15:45.786Z,57.60
2017-10-31T14:20:49.911Z,57.60
2017-10-31T14:25:53.112Z,58.50
2017-10-31T14:30:56.315Z,57.70
2017-10-31T14:35:59.534Z,56.80
2017-10-31T14:41:02.754Z,56.10
2017-10-31T14:46:05.932Z,56.70
2017-10-31T14:51:09.203Z,57.10
2017-10-31T14:56:12.390Z,57.80
2017-10-31T15:01:15.592Z,57.70
2017-10-31T15:06:18.817Z,58.40
2017-10-31T15:11:22.032Z,57.90
2017-10-31T15:16:25.251Z,58.30
2017-10-31T15:21:28.442Z,57.90
2017-10-31T15:26:31.673Z,58.20
2017-10-31T15:31:35.668Z,58.50
2017-10-31T15:36:40.168Z,58.50
2017-10-31T15:41:44.492Z,59.20
2017-10-31T15:46:47.723Z,59.50
2017-10-31T15:51:50.952Z,60.30
2017-10-31T15:56:54.123Z,61.00
2017-10-31T16:01:57.333Z,59.30
2017-10-31T16:07:00.506Z,60.40
2017-10-31T16:12:03.731Z,61.90
2017-10-31T16:17:06.955Z,63.20
2017-10-31T16:22:10.369Z,64.10
2017-10-31T16:27:13.592Z,64.10
2017-10-31T16:32:16.784Z,64.30
2017-10-31T16:37:20.148Z,64.80
2017-10-31T16:42:24.343Z,65.20
2017-10-31T16:47:27.579Z,65.10
2017-10-31T16:52:31.532Z,66.20
2017-10-31T16:57:34.736Z,66.10
2017-10-31T17:02:37.975Z,66.00
2017-10-31T17:07:41.253Z,66.10
2017-10-31T17:12:44.474Z,65.80
2017-10-31T17:17:47.659Z,65.90
2017-10-31T17:22:50.981Z,67.10
2017-10-31T17:27:54.141Z,66.30
2017-10-31T17:32:58.033Z,67.50
2017-10-31T17:38:01.333Z,67.50
2017-10-31T17:43:04.519Z,67.50
2017-10-31T17:48:07.705Z,67.20
2017-10-31T17:53:11.664Z,67.80
2017-10-31T17:58:15.035Z,67.70
2017-10-31T18:03:19.134Z,68.70
2017-10-31T18:08:22.447Z,68.70
2017-10-31T18:13:25.689Z,69.50
2017-10-31T18:18:28.895Z,69.40
2017-10-31T18:23:32.838Z,69.40
2017-10-31T18:28:36.012Z,69.50
2017-10-31T18:33:39.955Z,73.00
2017-10-31T18:38:43.185Z,73.00
2017-10-31T18:43:46.347Z,74.60
2017-10-31T18:48:50.297Z,72.80
2017-10-31T18:53:53.464Z,72.80
2017-10-31T18:58:57.388Z,72.70
2017-10-31T19:04:01.342Z,72.50
2017-10-31T19:09:04.569Z,72.50
2017-10-31T19:14:07.766Z,73.10
2017-10-31T19:19:11.021Z,72.90
2017-10-31T19:24:14.250Z,73.10
2017-10-31T19:29:18.236Z,74.20
2017-10-31T19:34:21.494Z,74.10
2017-10-31T19:39:25.897Z,73.70
2017-10-31T19:44:29.902Z,74.20
2017-10-31T19:49:33.316Z,74.20
2017-10-31T19:54:36.572Z,74.70
2017-10-31T19:59:40.597Z,75.90
2017-10-31T20:04:45.744Z,76.10
2017-10-31T20:09:49.142Z,76.10
2017-10-31T20:14:53.148Z,76.90
2017-10-31T20:19:56.424Z,76.60
2017-10-31T20:24:59.621Z,76.80
2017-10-31T20:30:02.822Z,77.60
2017-10-31T20:35:06.393Z,77.00
2017-10-31T20:40:09.740Z,76.60
2017-10-31T20:45:13.625Z,76.60
2017-10-31T20:50:16.826Z,76.60
2017-10-31T20:55:20.014Z,76.60
2017-10-31T21:00:23.333Z,76.50
2017-10-31T21:05:26.523Z,76.90
2017-10-31T21:10:29.748Z,76.50
2017-10-31T21:15:32.940Z,76.80
2017-10-31T21:20:36.149Z,76.90
2017-10-31T21:25:39.387Z,77.90
2017-10-31T21:30:42.690Z,77.40
2017-10-31T21:35:45.891Z,78.50
2017-10-31T21:40:49.051Z,78.30
2017-10-31T21:45:52.299Z,78.40
2017-10-31T21:50:57.335Z,79.20
2017-10-31T21:56:00.782Z,79.60
2017-10-31T22:01:04.754Z,80.80
2017-10-31T22:06:07.943Z,80.70
2017-10-31T22:11:11.458Z,82.30
2017-10-31T22:16:14.682Z,85.40
2017-10-31T22:21:17.835Z,86.40
2017-10-31T22:26:21.830Z,87.70
2017-10-31T22:31:25.016Z,87.70
2017-10-31T22:36:28.171Z,86.60
2017-10-31T22:41:31.407Z,87.00
2017-10-31T22:46:34.615Z,87.00
2017-10-31T22:51:37.884Z,85.80
2017-10-31T22:56:41.106Z,86.40
2017-10-31T23:01:45.053Z,85.90
2017-10-31T23:06:48.206Z,85.90
2017-10-31T23:11:51.457Z,86.20
2017-10-31T23:16:55.424Z,86.10
2017-10-31T23:21:58.615Z,86.00
2017-10-31T23:27:01.807Z,86.20
2017-10-31T23:32:04.992Z,85.80
2017-10-31T23:37:09.064Z,86.20
2017-10-31T23:42:12.283Z,86.20
2017-10-31T23:47:16.280Z,86.80
2017-10-31T23:52:19.470Z,86.80
2017-10-31T23:57:22.631Z,86.40
